Time;durP1;ratioP1;P1;durP2;ratioP2;P2;SDS_P1;SDS_P2;PMS_P1;PMS_P2;Temp;Humidity;BMP_temperature;BMP_pressure;BME280_temperature;BME280_humidity;BME280_pressure;Samples;Min_cycle;Max_cycle;Signal;HPM_P1;HPM_P2
2022/05/06 00:01:50;;;;;;;7.03;5.93;;;7.00;99.90;;;;;;5041262;28;20373;-80
2022/05/06 00:04:16;;;;;;;8.57;6.32;;;7.10;99.90;;;;;;5024367;28;20447;-80
2022/05/06 00:06:42;;;;;;;7.18;5.85;;;7.00;99.90;;;;;;5043817;28;20372;-82
2022/05/06 00:09:08;;;;;;;7.70;5.43;;;6.90;99.90;;;;;;5043367;28;20373;-81
2022/05/06 00:11:34;;;;;;;6.40;5.68;;;6.90;99.90;;;;;;5026906;28;20390;-82
2022/05/06 00:14:00;;;;;;;7.00;5.72;;;6.70;99.90;;;;;;5024175;28;20369;-82
2022/05/06 00:16:27;;;;;;;6.30;5.70;;;6.60;99.90;;;;;;5043290;28;20453;-83
2022/05/06 00:18:52;;;;;;;8.15;5.97;;;6.70;99.90;;;;;;5025891;28;20369;-81
2022/05/06 00:21:19;;;;;;;6.90;5.60;;;6.60;99.90;;;;;;5042041;28;20388;-83
2022/05/06 00:23:44;;;;;;;6.40;5.80;;;6.80;99.90;;;;;;5043177;28;20874;-80
2022/05/06 00:26:10;;;;;;;7.18;5.63;;;6.70;99.90;;;;;;5043207;28;20365;-80
2022/05/06 00:28:37;;;;;;;6.07;5.18;;;6.60;99.90;;;;;;5024068;28;20879;-81
2022/05/06 00:31:04;;;;;;;6.57;5.53;;;6.50;99.90;;;;;;5025539;28;20739;-82
2022/05/06 00:33:30;;;;;;;7.13;5.13;;;6.40;99.90;;;;;;5024816;28;20374;-83
2022/05/06 00:35:58;;;;;;;5.72;5.03;;;6.40;99.90;;;;;;5041618;28;20396;-83
2022/05/06 00:38:24;;;;;;;5.43;4.93;;;6.30;99.90;;;;;;5041848;28;20373;-81
2022/05/06 00:40:50;;;;;;;6.15;5.20;;;6.30;99.90;;;;;;5042637;28;20376;-82
2022/05/06 00:43:17;;;;;;;8.50;5.57;;;6.30;99.90;;;;;;5043339;28;20380;-81
2022/05/06 00:45:52;;;;;;;6.47;5.50;;;6.20;99.90;;;;;;5024128;28;20881;-81
2022/05/06 00:48:22;;;;;;;8.07;5.35;;;6.20;99.90;;;;;;5041519;28;20447;-80
2022/05/06 00:50:49;;;;;;;10.57;5.95;;;6.20;99.90;;;;;;5042676;28;20367;-80
2022/05/06 00:53:15;;;;;;;7.28;5.55;;;6.20;99.90;;;;;;5042725;28;20736;-83
2022/05/06 00:55:41;;;;;;;7.13;5.50;;;6.20;99.90;;;;;;5041341;28;20366;-81
2022/05/06 00:58:07;;;;;;;7.63;5.47;;;6.20;99.90;;;;;;5042652;28;20789;-80
2022/05/06 01:00:33;;;;;;;6.03;5.40;;;6.20;99.90;;;;;;5025089;28;20743;-82
2022/05/06 01:02:59;;;;;;;8.65;5.45;;;6.10;99.90;;;;;;5040872;28;20373;-82
2022/05/06 01:05:25;;;;;;;8.65;5.88;;;6.10;99.90;;;;;;5025206;28;20372;-80
2022/05/06 01:07:52;;;;;;;6.90;5.22;;;6.10;99.90;;;;;;5042404;28;20382;-81
2022/05/06 01:10:19;;;;;;;6.40;5.80;;;6.00;99.90;;;;;;5040775;28;20404;-83
2022/05/06 01:12:48;;;;;;;8.07;5.70;;;6.00;99.90;;;;;;5022604;28;20400;-81
2022/05/06 01:15:22;;;;;;;6.18;5.53;;;6.00;99.90;;;;;;5023488;28;20382;-84
2022/05/06 01:17:50;;;;;;;7.07;5.18;;;6.00;99.90;;;;;;5040355;28;20398;-81
2022/05/06 01:20:17;;;;;;;7.45;5.60;;;6.00;99.90;;;;;;5042119;28;20413;-83
2022/05/06 01:22:50;;;;;;;6.10;5.50;;;6.00;99.90;;;;;;5040357;28;20368;-81
2022/05/06 01:25:17;;;;;;;6.55;5.88;;;5.90;99.90;;;;;;5021866;28;20421;-84
2022/05/06 01:27:51;;;;;;;7.20;5.50;;;5.90;99.90;;;;;;5025549;28;20866;-82
2022/05/06 01:30:38;;;;;;;6.82;5.38;;;5.90;99.90;;;;;;5025006;28;20382;-82
2022/05/06 01:33:08;;;;;;;6.47;5.43;;;5.80;99.90;;;;;;5040122;28;20396;-82
2022/05/06 01:35:46;;;;;;;7.43;5.47;;;5.80;99.90;;;;;;5024143;28;20434;-83
2022/05/06 01:38:17;;;;;;;7.47;6.10;;;5.80;99.90;;;;;;5022352;28;20377;-80
2022/05/06 01:40:49;;;;;;;7.60;6.20;;;5.80;99.90;;;;;;5041330;28;20357;-82
2022/05/06 01:43:16;;;;;;;6.55;5.88;;;5.80;99.90;;;;;;5042474;28;20366;-81
2022/05/06 01:45:45;;;;;;;10.37;6.77;;;5.80;99.90;;;;;;5024220;28;20405;-82
2022/05/06 01:48:12;;;;;;;7.15;5.95;;;5.80;99.90;;;;;;5040612;28;20380;-81
2022/05/06 01:50:39;;;;;;;8.20;6.20;;;5.80;99.90;;;;;;5022719;28;20869;-82
2022/05/06 01:53:07;;;;;;;8.52;7.25;;;5.80;99.90;;;;;;5021890;28;20420;-82
2022/05/06 01:55:33;;;;;;;7.38;6.70;;;5.80;99.90;;;;;;5023365;28;20387;-83
2022/05/06 01:57:59;;;;;;;7.80;6.32;;;5.70;99.90;;;;;;5041874;28;20389;-83
2022/05/06 02:00:25;;;;;;;8.70;6.30;;;5.70;99.90;;;;;;5040054;28;20859;-82
2022/05/06 02:02:51;;;;;;;6.87;6.13;;;5.60;99.90;;;;;;5023835;28;20387;-82
2022/05/06 02:05:17;;;;;;;7.10;6.40;;;5.60;99.90;;;;;;5041333;28;20430;-82
2022/05/06 02:07:43;;;;;;;7.15;6.30;;;5.60;99.90;;;;;;5039770;28;20375;-83
2022/05/06 02:10:09;;;;;;;7.88;6.40;;;5.60;99.90;;;;;;5041746;28;20375;-82
2022/05/06 02:12:35;;;;;;;6.97;6.28;;;5.60;99.90;;;;;;5039315;28;20377;-83
2022/05/06 02:15:00;;;;;;;9.50;6.38;;;5.50;99.90;;;;;;5038987;28;20376;-82
2022/05/06 02:17:26;;;;;;;7.30;6.37;;;5.50;99.90;;;;;;5041689;28;20403;-81
2022/05/06 02:19:51;;;;;;;6.60;6.00;;;5.60;99.90;;;;;;5040209;28;20422;-83
2022/05/06 02:22:27;;;;;;;7.68;6.50;;;5.50;99.90;;;;;;5040739;28;20525;-83
2022/05/06 02:24:55;;;;;;;7.20;6.47;;;5.50;99.90;;;;;;5024473;28;20400;-83
2022/05/06 02:27:21;;;;;;;7.43;6.70;;;5.50;99.90;;;;;;5021979;28;20630;-83
2022/05/06 02:35:16;;;;;;;15.05;7.80;;;5.30;99.90;;;;;;5042037;28;20410;-82
2022/05/06 02:37:42;;;;;;;12.45;7.20;;;5.30;99.90;;;;;;5020835;28;20408;-81
2022/05/06 02:40:09;;;;;;;9.27;6.28;;;5.30;99.90;;;;;;5039499;28;20376;-81
2022/05/06 02:42:35;;;;;;;8.90;6.80;;;5.30;99.90;;;;;;5038583;28;20378;-83
2022/05/06 02:45:00;;;;;;;9.30;6.73;;;5.20;99.90;;;;;;5040055;28;20472;-81
2022/05/06 02:47:26;;;;;;;9.00;6.60;;;5.20;99.90;;;;;;5039236;28;20768;-81
2022/05/06 02:49:52;;;;;;;9.05;7.10;;;5.10;99.90;;;;;;5021418;28;20384;-82
2022/05/06 02:52:18;;;;;;;7.38;6.60;;;5.10;99.90;;;;;;5022935;28;20380;-83
2022/05/06 02:54:45;;;;;;;7.00;6.30;;;5.10;99.90;;;;;;5040856;28;20887;-80
2022/05/06 02:57:11;;;;;;;8.40;6.63;;;5.10;99.90;;;;;;5039045;28;20396;-83
2022/05/06 02:59:39;;;;;;;8.85;6.85;;;5.10;99.90;;;;;;5041021;28;20914;-84
2022/05/06 03:02:05;;;;;;;7.32;6.53;;;5.20;99.90;;;;;;5040937;28;20388;-83
2022/05/06 03:04:31;;;;;;;8.60;7.10;;;5.10;99.90;;;;;;5038413;28;20386;-81
2022/05/06 03:06:57;;;;;;;8.85;6.95;;;5.20;99.90;;;;;;5040776;28;20387;-80
2022/05/06 03:09:23;;;;;;;7.78;6.95;;;5.10;99.90;;;;;;5040391;28;20414;-81
2022/05/06 03:11:49;;;;;;;8.77;7.15;;;5.00;99.90;;;;;;5022026;28;20401;-81
2022/05/06 03:14:14;;;;;;;11.43;7.82;;;5.50;99.90;;;;;;5022911;28;20387;-82
2022/05/06 03:16:40;;;;;;;10.55;7.50;;;5.20;99.90;;;;;;5020791;28;20392;-82
2022/05/06 03:19:06;;;;;;;14.88;8.20;;;5.00;99.90;;;;;;5040413;28;20374;-82
2022/05/06 03:21:32;;;;;;;27.30;9.73;;;5.00;99.90;;;;;;5038845;28;20791;-82
2022/05/06 03:23:59;;;;;;;30.65;10.32;;;4.90;99.90;;;;;;5040364;28;20378;-81
2022/05/06 03:26:25;;;;;;;22.47;9.40;;;4.90;99.90;;;;;;5021962;28;20388;-82
2022/05/06 03:28:53;;;;;;;15.53;8.20;;;4.90;99.90;;;;;;5039058;28;20374;-81
2022/05/06 03:31:20;;;;;;;11.27;8.30;;;4.90;99.90;;;;;;5022839;28;20376;-82
2022/05/06 03:33:47;;;;;;;18.50;8.52;;;5.10;99.90;;;;;;5040216;28;20469;-80
2022/05/06 03:36:13;;;;;;;15.43;8.30;;;5.10;99.90;;;;;;5021844;28;20451;-82
2022/05/06 03:38:38;;;;;;;9.30;8.00;;;5.10;99.90;;;;;;5044504;28;20371;-81
2022/05/06 03:41:04;;;;;;;8.57;7.77;;;5.00;99.90;;;;;;5024076;28;20390;-82
2022/05/06 03:43:29;;;;;;;10.07;8.07;;;5.00;99.90;;;;;;5026723;28;20397;-79
2022/05/06 03:45:55;;;;;;;9.97;7.73;;;5.00;99.90;;;;;;5042669;28;20748;-79
2022/05/06 03:48:24;;;;;;;8.20;7.33;;;5.10;99.90;;;;;;5026541;28;20367;-81
2022/05/06 03:53:35;;;;;;;8.85;8.05;;;5.00;99.90;;;;;;5044825;28;20709;-82
2022/05/06 03:56:01;;;;;;;8.32;7.47;;;4.90;99.90;;;;;;5042666;28;20473;-80
2022/05/06 03:58:26;;;;;;;8.18;7.38;;;4.90;99.90;;;;;;5045135;28;20361;-81
2022/05/06 04:00:52;;;;;;;10.68;7.45;;;5.00;99.90;;;;;;5042394;28;20382;-81
2022/05/06 04:03:18;;;;;;;8.48;7.53;;;5.00;99.90;;;;;;5044327;28;20400;-80
2022/05/06 04:05:44;;;;;;;8.07;7.28;;;5.00;99.90;;;;;;5024004;28;20411;-81
2022/05/06 04:08:10;;;;;;;14.57;8.43;;;5.10;99.90;;;;;;5044035;28;21057;-80
2022/05/06 04:10:36;;;;;;;14.27;7.90;;;5.10;99.90;;;;;;5042096;28;20451;-80
2022/05/06 04:13:02;;;;;;;7.53;6.82;;;5.20;99.90;;;;;;5025743;28;20372;-82
2022/05/06 04:15:28;;;;;;;7.23;6.40;;;5.30;99.90;;;;;;5044362;28;20367;-81
2022/05/06 04:17:54;;;;;;;8.02;7.00;;;5.30;99.90;;;;;;5044186;28;20922;-82
2022/05/06 04:25:53;;;;;;;9.50;8.18;;;5.60;99.90;;;;;;5043977;28;20361;-82
2022/05/06 04:28:19;;;;;;;8.05;7.05;;;5.60;99.90;;;;;;5041648;28;20799;-81
2022/05/06 04:30:44;;;;;;;12.57;7.35;;;5.60;99.90;;;;;;5043162;28;20857;-83
2022/05/06 04:33:10;;;;;;;9.57;7.33;;;5.70;99.90;;;;;;5041052;28;20383;-83
2022/05/06 04:35:36;;;;;;;13.47;7.20;;;5.80;99.90;;;;;;5043888;28;20396;-83
2022/05/06 04:38:02;;;;;;;7.60;6.50;;;6.00;99.90;;;;;;5024053;28;21059;-82
2022/05/06 04:40:27;;;;;;;8.80;6.80;;;6.30;99.90;;;;;;5043682;28;20533;-81
2022/05/06 04:42:53;;;;;;;7.57;6.75;;;6.60;99.90;;;;;;5027179;28;20429;-81
2022/05/06 04:45:19;;;;;;;7.28;5.57;;;6.90;99.90;;;;;;5043552;28;20421;-83
2022/05/06 04:47:44;;;;;;;6.80;5.93;;;7.10;99.90;;;;;;5041850;28;20388;-82
2022/05/06 04:50:10;;;;;;;10.33;8.43;;;7.40;99.90;;;;;;5041449;28;20930;-82
2022/05/06 04:52:35;;;;;;;9.82;6.93;;;8.10;99.90;;;;;;5023399;28;20400;-83
2022/05/06 04:55:01;;;;;;;12.97;5.90;;;8.10;99.90;;;;;;5044540;28;20469;-79
2022/05/06 04:57:26;;;;;;;20.67;7.88;;;8.60;99.90;;;;;;5034703;28;20829;-79
2022/05/06 04:59:52;;;;;;;22.77;6.45;;;8.50;99.90;;;;;;5033336;28;20881;-81
2022/05/06 05:02:18;;;;;;;23.77;7.00;;;8.60;99.90;;;;;;5034995;28;20433;-81
2022/05/06 05:04:44;;;;;;;18.20;6.23;;;8.90;99.90;;;;;;5052123;28;20375;-83
2022/05/06 05:07:11;;;;;;;16.73;5.97;;;9.50;99.90;;;;;;5034656;28;20368;-82
2022/05/06 05:09:36;;;;;;;26.10;7.10;;;9.80;99.90;;;;;;5053002;28;20458;-82
2022/05/06 05:12:03;;;;;;;28.02;6.88;;;10.20;99.90;;;;;;5052158;28;20471;-81
2022/05/06 05:14:29;;;;;;;19.73;6.10;;;10.30;99.90;;;;;;5052290;28;20387;-79
2022/05/06 05:16:55;;;;;;;14.55;5.95;;;10.60;99.90;;;;;;5034249;28;20407;-83
2022/05/06 05:19:20;;;;;;;16.27;6.20;;;10.90;99.90;;;;;;5034596;28;20392;-81
2022/05/06 05:21:47;;;;;;;16.85;5.32;;;11.30;99.90;;;;;;5052174;28;20414;-80
2022/05/06 05:24:13;;;;;;;15.48;5.55;;;11.50;99.90;;;;;;5034359;28;20459;-79
2022/05/06 05:26:39;;;;;;;15.02;5.70;;;11.70;99.90;;;;;;5034102;28;20820;-82
2022/05/06 05:29:04;;;;;;;11.52;4.90;;;11.80;99.90;;;;;;5052280;28;20479;-80
2022/05/06 05:31:30;;;;;;;6.70;5.05;;;12.00;99.90;;;;;;5033988;28;20384;-81
2022/05/06 05:33:56;;;;;;;8.75;4.75;;;12.20;99.90;;;;;;5051387;28;20375;-81
2022/05/06 05:36:22;;;;;;;8.43;4.23;;;12.30;99.90;;;;;;5051993;28;20847;-80
2022/05/06 05:38:47;;;;;;;7.95;4.80;;;12.40;99.90;;;;;;5052297;28;20390;-80
2022/05/06 05:41:13;;;;;;;7.40;4.70;;;12.50;99.90;;;;;;5051897;28;20780;-82
2022/05/06 05:49:08;;;;;;;7.68;5.38;;;12.70;99.90;;;;;;5052052;28;20386;-83
2022/05/06 05:51:34;;;;;;;10.40;5.43;;;12.70;99.90;;;;;;5033762;28;20379;-82
2022/05/06 05:53:59;;;;;;;9.02;4.95;;;12.70;99.90;;;;;;5051567;28;20919;-81
2022/05/06 05:56:25;;;;;;;7.97;4.85;;;12.80;99.90;;;;;;5048370;28;20404;-81
2022/05/06 05:58:51;;;;;;;8.90;5.37;;;12.80;99.90;;;;;;5039027;28;20420;-83
2022/05/06 06:01:18;;;;;;;6.83;5.40;;;13.00;99.90;;;;;;5042547;28;20742;-81
2022/05/06 06:03:43;;;;;;;7.03;5.30;;;13.40;99.90;;;;;;5031723;28;20384;-83
2022/05/06 06:06:09;;;;;;;7.27;5.50;;;13.30;99.90;;;;;;5049744;28;20371;-79
2022/05/06 06:08:35;;;;;;;12.53;4.80;;;13.40;99.90;;;;;;5031615;28;20371;-80
2022/05/06 06:11:02;;;;;;;8.20;4.53;;;13.40;99.90;;;;;;5032130;28;20380;-79
2022/05/06 06:13:30;;;;;;;5.82;4.20;;;13.40;99.90;;;;;;5031707;28;20426;-80
2022/05/06 06:15:56;;;;;;;10.82;4.55;;;13.60;99.90;;;;;;5032711;28;20371;-80
2022/05/06 06:18:26;;;;;;;7.95;3.97;;;;;;;;;;5051487;28;20922;-80
2022/05/06 06:20:56;;;;;;;6.17;3.90;;;;;;;;;;5051435;28;20358;-80
2022/05/06 06:23:25;;;;;;;6.80;3.60;;;;;;;;;;5033063;28;20372;-80
2022/05/06 06:25:53;;;;;;;7.03;3.92;;;;;;;;;;5033220;28;20459;-80
2022/05/06 06:28:21;;;;;;;6.57;3.40;;;;;;;;;;5051329;28;20923;-82
2022/05/06 06:30:47;;;;;;;5.32;3.60;;;;;;;;;;5033002;28;20372;-83
2022/05/06 06:33:14;;;;;;;7.50;3.53;;;;;;;;;;5050709;28;20460;-81
2022/05/06 06:35:39;;;;;;;5.53;3.20;;;15.90;99.90;;;;;;5051081;28;20429;-83
2022/05/06 06:38:06;;;;;;;6.33;2.87;;;16.00;99.90;;;;;;5051384;28;20392;-82
2022/05/06 06:40:31;;;;;;;6.75;3.10;;;16.20;99.90;;;;;;5046427;28;20393;-83
2022/05/06 06:43:04;;;;;;;4.70;2.85;;;16.40;99.90;;;;;;5013302;28;20697;-83
2022/05/06 06:45:31;;;;;;;5.32;2.80;;;16.90;99.90;;;;;;5030587;28;20886;-81
2022/05/06 06:47:59;;;;;;;6.93;3.00;;;17.00;99.90;;;;;;5013193;28;20417;-82
2022/05/06 06:50:25;;;;;;;6.20;3.22;;;17.30;99.90;;;;;;5030634;28;20875;-82
2022/05/06 06:52:51;;;;;;;5.60;2.85;;;17.60;99.90;;;;;;5030620;28;20374;-81
2022/05/06 06:55:18;;;;;;;4.45;2.60;;;17.90;99.90;;;;;;5021223;28;20391;-83
2022/05/06 06:57:44;;;;;;;5.40;3.13;;;18.10;99.90;;;;;;5049702;28;20473;-82
2022/05/06 07:00:11;;;;;;;4.50;2.92;;;18.30;99.60;;;;;;5050298;28;20835;-82
2022/05/06 07:02:37;;;;;;;5.17;2.80;;;18.50;99.90;;;;;;5050083;28;20399;-82
2022/05/06 07:05:03;;;;;;;6.20;4.00;;;18.50;99.10;;;;;;5049824;28;20905;-82
2022/05/06 07:12:57;;;;;;;6.60;3.95;;;18.40;99.70;;;;;;5050502;28;20374;-83
2022/05/06 07:15:23;;;;;;;6.00;3.63;;;18.50;99.90;;;;;;5050212;28;20380;-82
2022/05/06 07:17:49;;;;;;;7.20;4.95;;;18.50;99.20;;;;;;5050139;28;20402;-82
2022/05/06 07:20:15;;;;;;;7.85;5.65;;;18.40;99.60;;;;;;5049905;28;20785;-82
2022/05/06 07:22:41;;;;;;;8.17;3.60;;;18.40;99.90;;;;;;5034588;28;20397;-83
2022/05/06 07:25:08;;;;;;;7.38;5.53;;;18.50;99.90;;;;;;5032938;28;20367;-83
2022/05/06 07:27:35;;;;;;;8.30;4.50;;;18.60;98.80;;;;;;5053587;28;20379;-83
2022/05/06 07:30:04;;;;;;;10.98;6.25;;;18.70;99.90;;;;;;5037419;28;20410;-82
2022/05/06 07:32:30;;;;;;;9.90;6.75;;;18.60;99.90;;;;;;5053053;28;20376;-84
2022/05/06 07:34:56;;;;;;;10.57;6.45;;;18.60;99.50;;;;;;5052485;28;20387;-82
2022/05/06 07:37:22;;;;;;;11.02;6.47;;;18.60;99.90;;;;;;5034190;28;20765;-84
2022/05/06 07:39:47;;;;;;;8.63;5.97;;;18.50;99.90;;;;;;5055458;28;20402;-85
2022/05/06 07:42:14;;;;;;;11.55;6.50;;;18.60;99.90;;;;;;5053945;28;20382;-81
2022/05/06 07:44:40;;;;;;;11.57;6.20;;;18.70;99.90;;;;;;5055059;28;20462;-82
2022/05/06 07:47:06;;;;;;;8.57;6.05;;;18.90;99.90;;;;;;5055611;28;20473;-81
2022/05/06 07:49:31;;;;;;;9.07;6.25;;;19.00;99.50;;;;;;5052413;28;20371;-81
2022/05/06 07:51:57;;;;;;;11.53;7.23;;;19.10;99.90;;;;;;5057330;28;20376;-82
2022/05/06 07:54:23;;;;;;;9.63;6.57;;;19.20;99.50;;;;;;5054959;28;20371;-81
2022/05/06 07:56:48;;;;;;;10.83;6.67;;;19.30;99.90;;;;;;5052029;28;20407;-83
2022/05/06 07:59:14;;;;;;;9.30;6.17;;;19.30;99.40;;;;;;5032613;28;20833;-82
2022/05/06 08:04:33;;;;;;;9.85;6.72;;;19.20;97.90;;;;;;5049132;28;20375;-81
2022/05/06 08:06:59;;;;;;;9.65;6.35;;;19.30;97.90;;;;;;5049197;28;20406;-83
2022/05/06 08:09:25;;;;;;;10.15;7.00;;;19.30;99.70;;;;;;5050514;28;20444;-85
2022/05/06 08:11:52;;;;;;;8.98;6.63;;;19.30;99.30;;;;;;5032733;28;20403;-81
2022/05/06 08:14:18;;;;;;;8.27;6.40;;;19.40;99.40;;;;;;5049802;28;20367;-84
2022/05/06 08:16:45;;;;;;;10.38;6.43;;;19.80;99.20;;;;;;5050128;28;20387;-85
2022/05/06 08:19:11;;;;;;;10.87;7.00;;;20.10;98.70;;;;;;5051563;28;20474;-84
2022/05/06 08:21:37;;;;;;;13.80;6.93;;;20.30;97.90;;;;;;5049960;28;20815;-85
2022/05/06 08:24:03;;;;;;;10.43;6.30;;;20.50;98.40;;;;;;5054355;28;21226;-83
2022/05/06 08:26:29;;;;;;;10.15;6.93;;;20.80;98.40;;;;;;5036038;28;20376;-84
2022/05/06 08:28:55;;;;;;;8.67;6.90;;;20.90;95.20;;;;;;5053344;28;20371;-86
2022/05/06 08:31:21;;;;;;;8.87;6.83;;;20.90;95.80;;;;;;5054474;28;20382;-83
2022/05/06 08:33:46;;;;;;;8.77;6.43;;;21.20;95.70;;;;;;5055409;28;20379;-85
2022/05/06 08:36:12;;;;;;;8.47;6.10;;;21.50;96.40;;;;;;5054739;28;20375;-84
2022/05/06 08:38:38;;;;;;;10.50;6.80;;;21.90;95.80;;;;;;5042332;28;20869;-85
2022/05/06 08:41:05;;;;;;;12.03;6.47;;;22.10;93.20;;;;;;5054482;28;20411;-84
2022/05/06 08:43:31;;;;;;;10.30;6.20;;;22.30;92.90;;;;;;5053263;28;20912;-83
2022/05/06 08:51:32;;;;;;;11.82;8.40;;;20.90;94.10;;;;;;5042425;28;20360;-83
2022/05/06 08:53:57;;;;;;;8.95;6.25;;;19.90;95.00;;;;;;5041574;28;20375;-83
2022/05/06 08:56:23;;;;;;;14.10;7.13;;;19.50;96.20;;;;;;5041118;28;20404;-83
2022/05/06 08:58:49;;;;;;;9.10;6.93;;;19.70;95.90;;;;;;5024809;28;20929;-83
2022/05/06 09:01:17;;;;;;;9.65;6.40;;;20.00;95.10;;;;;;5030800;28;20771;-82
2022/05/06 09:03:47;;;;;;;10.07;6.63;;;20.00;96.10;;;;;;5040923;28;20790;-84
2022/05/06 09:06:26;;;;;;;10.88;7.50;;;20.00;95.30;;;;;;5041061;28;20394;-84
2022/05/06 09:08:54;;;;;;;10.60;6.50;;;19.60;94.90;;;;;;5051555;28;20371;-82
2022/05/06 09:14:06;;;;;;;11.77;6.72;;;20.20;94.40;;;;;;5052950;28;20379;-81
2022/05/06 09:16:41;;;;;;;9.10;6.37;;;20.00;95.10;;;;;;5035176;28;20904;-81
2022/05/06 09:19:14;;;;;;;8.07;5.57;;;20.00;95.70;;;;;;5034736;28;20402;-83
2022/05/06 09:21:44;;;;;;;8.52;6.80;;;20.50;97.80;;;;;;5054278;28;20410;-82
2022/05/06 09:24:17;;;;;;;8.88;5.88;;;21.20;95.90;;;;;;5019845;28;20386;-81
2022/05/06 09:27:19;;;;;;;9.82;6.10;;;21.70;94.80;;;;;;5038066;28;20371;-82
2022/05/06 09:29:52;;;;;;;13.38;6.55;;;22.30;92.80;;;;;;4958088;29;20543;-82
2022/05/06 09:32:29;;;;;;;9.33;6.10;;;22.40;94.00;;;;;;5041879;28;20386;-82
2022/05/06 09:34:56;;;;;;;9.85;5.43;;;22.00;92.60;;;;;;5035836;28;20486;-82
2022/05/06 09:37:42;;;;;;;9.30;5.40;;;21.60;93.40;;;;;;5048816;28;20428;-81
2022/05/06 09:40:12;;;;;;;7.65;5.50;;;21.20;93.20;;;;;;5027709;28;20451;-82
2022/05/06 09:42:40;;;;;;;8.63;5.55;;;20.90;93.30;;;;;;5042351;28;20455;-81
2022/05/06 09:45:07;;;;;;;6.72;5.18;;;21.10;94.30;;;;;;5049743;28;20384;-83
2022/05/06 09:47:33;;;;;;;8.48;5.22;;;21.50;92.30;;;;;;5048293;28;20378;-82
2022/05/06 09:50:00;;;;;;;8.87;4.93;;;21.50;92.60;;;;;;5029005;28;20743;-83
2022/05/06 09:52:26;;;;;;;7.45;4.47;;;21.60;93.00;;;;;;5029257;28;20755;-83
2022/05/06 09:54:53;;;;;;;6.47;4.40;;;21.60;91.10;;;;;;5025621;28;20387;-81
2022/05/06 09:57:19;;;;;;;5.57;4.57;;;20.60;91.70;;;;;;5026586;28;20409;-80
2022/05/06 09:59:46;;;;;;;10.93;5.17;;;20.40;93.00;;;;;;5044659;28;20887;-81
2022/05/06 10:02:14;;;;;;;7.22;4.35;;;20.20;93.40;;;;;;5043836;28;20430;-81
2022/05/06 10:04:40;;;;;;;8.52;4.88;;;20.40;94.30;;;;;;5043632;28;20767;-82
2022/05/06 10:07:17;;;;;;;15.43;5.85;;;20.40;92.80;;;;;;5043522;28;20836;-83
2022/05/06 10:10:01;;;;;;;7.07;5.32;;;20.60;94.40;;;;;;5043502;28;20452;-81
2022/05/06 10:12:39;;;;;;;7.68;4.80;;;20.40;92.50;;;;;;5041329;28;20397;-82
2022/05/06 10:15:08;;;;;;;9.10;4.95;;;20.00;93.40;;;;;;5040637;28;20377;-83
2022/05/06 10:18:07;;;;;;;8.63;4.50;;;19.70;95.00;;;;;;5036644;28;20386;-83
2022/05/06 10:20:36;;;;;;;6.22;4.28;;;19.90;96.70;;;;;;4983817;28;20415;-83
2022/05/06 10:23:11;;;;;;;7.85;4.10;;;20.50;93.50;;;;;;5043030;28;20437;-81
2022/05/06 10:25:40;;;;;;;6.90;4.32;;;20.90;94.00;;;;;;5026594;28;20472;-82
2022/05/06 10:34:15;;;;;;;4.30;3.03;;;21.70;91.20;;;;;;5047108;28;20371;-82
2022/05/06 10:36:43;;;;;;;7.68;3.83;;;22.30;92.60;;;;;;5042628;28;20396;-84
2022/05/06 10:39:33;;;;;;;15.23;4.10;;;22.60;90.80;;;;;;5026496;28;20384;-81
2022/05/06 10:42:03;;;;;;;6.03;3.97;;;22.50;90.00;;;;;;5039838;28;20790;-82
2022/05/06 10:44:38;;;;;;;5.82;3.72;;;21.40;90.00;;;;;;5040348;28;20378;-83
2022/05/06 10:47:42;;;;;;;5.32;3.85;;;21.00;91.30;;;;;;5022747;28;20443;-83
2022/05/06 10:50:25;;;;;;;6.53;3.33;;;20.60;92.00;;;;;;5038199;28;20429;-85
2022/05/06 10:52:51;;;;;;;5.05;3.45;;;20.70;93.50;;;;;;5026007;28;20387;-83
2022/05/06 10:55:19;;;;;;;5.32;3.40;;;21.10;93.70;;;;;;5044786;28;20384;-85
2022/05/06 10:58:17;;;;;;;5.80;3.50;;;21.60;92.10;;;;;;5047075;28;20779;-83
2022/05/06 11:00:42;;;;;;;6.10;3.45;;;22.10;92.70;;;;;;4996254;28;20423;-86
2022/05/06 11:03:08;;;;;;;6.27;4.07;;;22.40;91.70;;;;;;5041834;28;20381;-85
2022/05/06 11:05:34;;;;;;;5.30;3.53;;;22.60;91.50;;;;;;5025183;28;20391;-85
2022/05/06 11:08:01;;;;;;;6.82;3.42;;;22.70;90.90;;;;;;5041143;28;20385;-84
2022/05/06 11:10:30;;;;;;;3.40;2.80;;;22.70;86.80;;;;;;5038934;28;20399;-82
2022/05/06 11:12:59;;;;;;;5.03;3.07;;;22.60;88.50;;;;;;5023643;28;20387;-84
2022/05/06 11:15:30;;;;;;;5.60;3.00;;;21.90;86.90;;;;;;5040305;28;20381;-85
2022/05/06 11:17:58;;;;;;;5.82;2.95;;;21.70;88.10;;;;;;5040966;28;20404;-84
2022/05/06 11:20:29;;;;;;;3.25;2.30;;;21.90;88.30;;;;;;5040556;28;20395;-84
2022/05/06 11:23:04;;;;;;;4.82;2.60;;;21.90;90.20;;;;;;5023713;28;20369;-83
2022/05/06 11:25:34;;;;;;;8.10;3.25;;;22.20;90.10;;;;;;5040117;28;20423;-83
2022/05/06 11:28:03;;;;;;;5.65;2.72;;;22.70;90.20;;;;;;5041763;28;20425;-83
2022/05/06 11:30:30;;;;;;;9.02;2.60;;;22.90;91.50;;;;;;5041828;28;20937;-84
2022/05/06 11:33:01;;;;;;;5.28;2.75;;;23.10;95.20;;;;;;5040117;28;20392;-83
2022/05/06 11:35:39;;;;;;;5.10;2.90;;;23.10;91.70;;;;;;5043257;28;20369;-83
2022/05/06 11:38:05;;;;;;;8.02;2.50;;;22.60;93.40;;;;;;5023626;28;20397;-82
2022/05/06 11:40:34;;;;;;;4.55;2.22;;;22.40;95.10;;;;;;5040838;28;20705;-87
2022/05/06 11:43:20;;;;;;;3.80;2.03;;;22.60;94.90;;;;;;5041201;28;20371;-84
2022/05/06 11:48:46;;;;;;;3.30;2.00;;;22.80;94.90;;;;;;5042475;28;20371;-83
2022/05/06 11:51:24;;;;;;;4.93;2.28;;;22.80;94.80;;;;;;5021858;28;20389;-84
2022/05/06 11:53:51;;;;;;;4.17;2.43;;;22.20;95.20;;;;;;5039807;28;20378;-82
2022/05/06 11:56:27;;;;;;;4.47;2.10;;;21.60;96.20;;;;;;5041637;28;20415;-81
2022/05/06 11:58:56;;;;;;;3.45;1.88;;;20.80;96.80;;;;;;5044304;28;20428;-83
2022/05/06 12:01:29;;;;;;;4.47;1.90;;;20.70;97.50;;;;;;5046362;28;20384;-82
2022/05/06 12:04:01;;;;;;;3.45;2.20;;;20.80;96.00;;;;;;5027754;28;20444;-82
2022/05/06 12:06:27;;;;;;;2.95;2.10;;;20.90;95.70;;;;;;5044423;28;20367;-82
2022/05/06 12:09:09;;;;;;;2.85;2.00;;;21.00;96.00;;;;;;5045685;28;20482;-86
2022/05/06 12:11:34;;;;;;;4.93;2.25;;;21.30;90.00;;;;;;5028297;28;20387;-82
2022/05/06 12:14:19;;;;;;;5.37;2.10;;;21.20;92.00;;;;;;5043957;28;20882;-82
2022/05/06 12:17:03;;;;;;;3.97;2.03;;;21.30;95.70;;;;;;5026827;28;20429;-83
2022/05/06 12:19:38;;;;;;;5.28;2.53;;;21.50;95.30;;;;;;5012280;28;20419;-82
2022/05/06 12:22:08;;;;;;;2.70;2.00;;;21.30;96.30;;;;;;5054941;28;20372;-82
2022/05/06 12:24:41;;;;;;;3.78;2.00;;;21.20;94.00;;;;;;5054359;28;20382;-83
2022/05/06 12:27:08;;;;;;;5.68;2.40;;;21.20;95.70;;;;;;5055527;28;20371;-82
2022/05/06 12:29:41;;;;;;;2.88;2.13;;;21.20;93.80;;;;;;5057790;28;20372;-82
2022/05/06 12:32:07;;;;;;;4.25;2.17;;;21.10;94.80;;;;;;5041082;28;20384;-82
2022/05/06 12:34:33;;;;;;;4.22;2.22;;;20.90;91.90;;;;;;5057872;28;20419;-81
2022/05/06 12:37:20;;;;;;;3.85;2.40;;;20.70;94.80;;;;;;5037988;28;20480;-82
2022/05/06 12:39:48;;;;;;;3.67;1.92;;;20.80;98.40;;;;;;5057586;28;20391;-82
2022/05/06 12:42:18;;;;;;;5.00;2.47;;;20.40;98.10;;;;;;5036329;28;20383;-82
2022/05/06 12:44:45;;;;;;;5.35;2.40;;;20.50;94.30;;;;;;5036610;28;20846;-84
2022/05/06 12:47:12;;;;;;;3.83;1.92;;;20.70;96.30;;;;;;5055173;28;20406;-81
2022/05/06 12:49:40;;;;;;;4.32;1.90;;;21.10;98.80;;;;;;5038087;28;20395;-81
2022/05/06 12:52:08;;;;;;;2.70;1.47;;;21.50;95.00;;;;;;5058456;28;20380;-82
2022/05/06 12:54:35;;;;;;;3.15;1.42;;;21.90;93.40;;;;;;5023039;28;20422;-81
2022/05/06 12:57:03;;;;;;;4.70;1.80;;;22.20;96.70;;;;;;5056376;28;20401;-82
2022/05/06 12:59:29;;;;;;;4.97;2.13;;;22.40;95.60;;;;;;5057114;28;20749;-81
2022/05/06 13:01:55;;;;;;;7.63;2.00;;;22.70;88.50;;;;;;5056905;28;20695;-83
2022/05/06 13:04:21;;;;;;;4.00;1.75;;;22.90;85.70;;;;;;5030110;28;20377;-82
2022/05/06 13:06:47;;;;;;;3.90;1.92;;;22.90;82.80;;;;;;5046315;28;20411;-82
2022/05/06 13:09:13;;;;;;;4.20;1.95;;;22.90;80.70;;;;;;5048303;28;20406;-80
2022/05/06 13:11:39;;;;;;;2.80;1.70;;;22.40;85.00;;;;;;5045672;28;20397;-81
2022/05/06 13:14:07;;;;;;;2.70;1.58;;;22.30;93.60;;;;;;5045082;28;20379;-82
2022/05/06 13:16:36;;;;;;;2.22;1.50;;;21.00;86.50;;;;;;5043943;28;20488;-81
2022/05/06 13:19:04;;;;;;;7.35;2.28;;;22.30;98.50;;;;;;5043141;28;20405;-82
2022/05/06 13:21:31;;;;;;;3.33;1.95;;;22.40;99.90;;;;;;5045961;28;20376;-82
2022/05/06 13:23:58;;;;;;;5.72;2.10;;;22.50;99.90;;;;;;5028395;28;20529;-82
2022/05/06 13:26:24;;;;;;;4.50;1.60;;;22.70;99.90;;;;;;5049571;28;20376;-84
2022/05/06 13:28:49;;;;;;;2.20;1.58;;;22.90;99.90;;;;;;5047128;28;20368;-83
2022/05/06 13:31:15;;;;;;;3.87;2.03;;;23.40;80.50;;;;;;5026258;28;20434;-80
2022/05/06 13:33:40;;;;;;;4.70;1.77;;;23.70;78.70;;;;;;5045295;28;20385;-81
2022/05/06 13:36:06;;;;;;;2.47;1.20;;;23.80;78.10;;;;;;5046327;28;20370;-82
2022/05/06 13:38:32;;;;;;;2.45;1.45;;;24.00;73.70;;;;;;5028732;28;20418;-82
2022/05/06 13:40:57;;;;;;;3.05;1.77;;;24.00;77.40;;;;;;5047240;28;20376;-80